createdAt,value
2019-01-28T00:01:58.738Z,98.21
2019-01-28T00:02:35.180Z,98.30
2019-01-28T00:03:54.741Z,98.11
2019-01-28T00:04:38.674Z,98.11
2019-01-28T00:07:32.461Z,97.92
2019-01-28T00:08:26.457Z,97.54
2019-01-28T00:09:05.461Z,97.45
2019-01-28T00:11:38.621Z,97.45
2019-01-28T00:13:02.184Z,97.16
2019-01-28T00:13:37.183Z,97.16
2019-01-28T00:16:08.903Z,96.78
2019-01-28T00:17:10.345Z,97.59
2019-01-28T00:18:12.415Z,97.16
2019-01-28T00:19:09.412Z,97.21
2019-01-28T00:20:11.371Z,97.83
2019-01-28T00:21:11.844Z,97.92
2019-01-28T00:22:09.410Z,98.44
2019-01-28T00:23:19.344Z,98.25
2019-01-28T00:24:09.911Z,97.68
2019-01-28T00:25:09.908Z,97.78
2019-01-28T00:26:09.909Z,98.35
2019-01-28T00:27:10.409Z,97.78
2019-01-28T00:28:11.844Z,97.68
2019-01-28T00:29:34.412Z,97.68
2019-01-28T00:32:03.015Z,98.21
2019-01-28T00:34:39.931Z,98.35
2019-01-28T00:35:13.498Z,98.35
2019-01-28T00:36:13.497Z,98.44
2019-01-28T00:38:45.239Z,98.06
2019-01-28T00:39:48.223Z,98.21
2019-01-28T00:40:45.226Z,98.21
2019-01-28T00:43:37.941Z,98.49
2019-01-28T00:47:23.138Z,96.97
2019-01-28T00:48:23.869Z,97.45
2019-01-28T00:49:23.871Z,97.73
2019-01-28T00:50:24.380Z,97.49
2019-01-28T00:51:28.368Z,97.21
2019-01-28T00:54:17.283Z,97.54
2019-01-28T00:55:18.845Z,97.07
2019-01-28T00:56:18.309Z,96.97
2019-01-28T00:57:01.779Z,97.16
2019-01-28T00:59:49.144Z,97.54
2019-01-28T01:00:50.594Z,97.54
2019-01-28T01:01:28.153Z,96.69
2019-01-28T01:04:02.738Z,96.78
2019-01-28T01:05:02.745Z,96.69
2019-01-28T01:06:02.745Z,96.69
2019-01-28T01:07:03.244Z,96.59
2019-01-28T01:09:38.338Z,95.93
2019-01-28T01:10:38.346Z,94.04
2019-01-28T01:11:38.352Z,93.84
2019-01-28T01:12:39.780Z,93.65
2019-01-28T01:14:03.352Z,94.42
2019-01-28T01:14:38.844Z,96.03
2019-01-28T01:15:38.844Z,94.98
2019-01-28T01:16:45.351Z,94.89
2019-01-28T01:18:02.344Z,95.84
2019-01-28T01:18:39.344Z,95.74
2019-01-28T01:19:43.344Z,94.13
2019-01-28T01:23:42.477Z,93.75
2019-01-28T01:27:51.995Z,94.13
2019-01-28T01:29:09.560Z,93.56
2019-01-28T01:31:44.405Z,92.52
2019-01-28T01:32:23.372Z,93.08
2019-01-28T01:33:23.373Z,94.42
2019-01-28T01:34:25.311Z,94.70
2019-01-28T01:35:28.807Z,95.07
2019-01-28T01:36:23.873Z,95.55
2019-01-28T01:37:23.876Z,93.56
2019-01-28T01:38:45.372Z,92.99
2019-01-28T01:39:24.374Z,93.18
2019-01-28T01:40:48.872Z,93.56
2019-01-28T01:41:24.375Z,94.13
2019-01-28T01:45:52.036Z,95.17
2019-01-28T01:46:29.539Z,93.56
2019-01-28T01:47:28.977Z,93.94
2019-01-28T01:53:05.895Z,95.74
2019-01-28T01:54:05.894Z,94.98
2019-01-28T01:55:05.356Z,95.55
2019-01-28T01:57:41.080Z,94.32
2019-01-28T01:58:37.582Z,95.26
2019-01-28T02:01:30.174Z,95.93
2019-01-28T02:02:09.187Z,96.22
2019-01-28T02:03:12.682Z,96.41
2019-01-28T02:04:09.696Z,96.22
2019-01-28T02:05:10.649Z,95.65
2019-01-28T02:06:09.683Z,95.65
2019-01-28T02:07:09.683Z,95.84
2019-01-28T02:08:13.682Z,95.17
2019-01-28T02:09:11.616Z,93.84
2019-01-28T02:10:10.181Z,93.37
2019-01-28T02:11:10.181Z,93.46
2019-01-28T02:13:49.842Z,95.17
2019-01-28T02:14:41.912Z,95.45
2019-01-28T02:15:41.374Z,93.56
2019-01-28T02:16:48.408Z,92.61
2019-01-28T02:18:03.407Z,93.08
2019-01-28T02:19:06.908Z,94.23
2019-01-28T02:20:03.411Z,92.80
2019-01-28T02:20:42.414Z,93.75
2019-01-28T02:22:03.909Z,93.56
2019-01-28T02:22:42.907Z,94.13
2019-01-28T02:23:42.907Z,95.07
2019-01-28T02:24:51.851Z,94.13
2019-01-28T02:25:45.841Z,94.98
2019-01-28T02:28:14.744Z,94.04
2019-01-28T02:29:15.706Z,94.23
2019-01-28T02:30:18.253Z,94.13
2019-01-28T02:33:07.971Z,94.89
2019-01-28T02:36:52.731Z,94.60
2019-01-28T02:37:52.735Z,94.51
2019-01-28T02:40:27.459Z,94.42
2019-01-28T02:41:45.470Z,94.98
2019-01-28T02:42:45.465Z,95.36
2019-01-28T02:46:31.598Z,95.26
2019-01-28T02:48:59.069Z,95.07
2019-01-28T02:49:59.076Z,94.89
2019-01-28T02:50:59.078Z,93.18
2019-01-28T02:52:03.073Z,92.33
2019-01-28T02:56:02.652Z,92.80
2019-01-28T02:57:05.154Z,93.18
2019-01-28T02:58:24.151Z,94.23
2019-01-28T02:59:03.151Z,94.89
2019-01-28T03:00:03.152Z,95.26
2019-01-28T03:01:03.152Z,95.17
2019-01-28T03:02:06.652Z,93.75
2019-01-28T03:03:03.657Z,93.94
2019-01-28T03:04:02.989Z,93.65
2019-01-28T03:05:03.650Z,94.23
2019-01-28T03:06:03.652Z,94.23
2019-01-28T03:07:07.651Z,94.89
2019-01-28T03:08:04.150Z,93.94
2019-01-28T03:09:04.167Z,94.04
2019-01-28T03:10:04.150Z,93.94
2019-01-28T03:14:10.702Z,92.99
2019-01-28T03:17:03.290Z,94.51
2019-01-28T03:18:06.297Z,93.27
2019-01-28T03:19:03.297Z,92.61
2019-01-28T03:21:14.027Z,92.04
2019-01-28T03:22:14.033Z,91.47
2019-01-28T03:23:39.027Z,91.66
2019-01-28T03:27:17.163Z,91.66
2019-01-28T03:29:51.853Z,91.28
2019-01-28T03:30:51.860Z,91.76
2019-01-28T03:31:52.366Z,91.66
2019-01-28T03:35:58.939Z,91.47
2019-01-28T03:36:58.947Z,92.04
2019-01-28T03:37:58.953Z,92.33
2019-01-28T03:42:06.033Z,91.00
2019-01-28T03:43:06.016Z,92.14
2019-01-28T03:44:06.017Z,92.04
2019-01-28T03:45:06.517Z,91.57
2019-01-28T03:46:45.015Z,90.91
2019-01-28T03:47:06.519Z,91.76
2019-01-28T03:48:08.471Z,92.52
2019-01-28T03:49:07.022Z,92.80
2019-01-28T03:50:27.122Z,92.99
2019-01-28T03:52:41.841Z,91.95
2019-01-28T03:53:41.821Z,92.80
2019-01-28T03:54:41.817Z,91.28
2019-01-28T03:55:42.309Z,90.62
2019-01-28T03:56:45.333Z,91.09
2019-01-28T03:57:42.311Z,91.09
2019-01-28T03:58:43.771Z,92.33
2019-01-28T03:59:42.814Z,93.27
2019-01-28T04:02:17.529Z,92.61
2019-01-28T04:03:18.472Z,93.65
2019-01-28T04:04:14.049Z,93.75
2019-01-28T04:09:52.059Z,93.94
2019-01-28T04:10:52.065Z,93.65
2019-01-28T04:11:52.070Z,94.32
2019-01-28T04:12:56.000Z,93.56
2019-01-28T04:14:16.074Z,92.71
2019-01-28T04:16:24.046Z,92.80
2019-01-28T04:18:59.506Z,92.33
2019-01-28T04:21:26.984Z,92.23
2019-01-28T04:24:02.918Z,92.42
2019-01-28T04:24:58.472Z,91.95
2019-01-28T04:25:58.461Z,92.71
2019-01-28T04:28:31.124Z,92.52
2019-01-28T04:29:34.186Z,92.42
2019-01-28T04:30:51.186Z,92.42
2019-01-28T04:31:51.686Z,92.52
2019-01-28T04:32:53.121Z,93.18
2019-01-28T04:33:30.687Z,93.18
2019-01-28T04:34:48.687Z,92.42
2019-01-28T04:35:52.186Z,92.09
2019-01-28T04:36:31.194Z,92.71
2019-01-28T04:37:52.186Z,92.61
2019-01-28T04:38:31.185Z,93.84
2019-01-28T04:41:27.330Z,93.84
2019-01-28T04:42:06.338Z,93.18
2019-01-28T04:43:06.336Z,93.37
2019-01-28T04:45:41.582Z,94.89
2019-01-28T04:49:40.957Z,92.42
2019-01-28T04:53:49.154Z,92.71
2019-01-28T04:54:47.712Z,92.42
2019-01-28T04:56:13.646Z,91.38
2019-01-28T04:57:09.213Z,91.47
2019-01-28T04:58:09.212Z,92.14
2019-01-28T04:59:23.212Z,91.95
2019-01-28T05:00:09.212Z,91.76
2019-01-28T05:00:52.214Z,91.66
2019-01-28T05:01:50.145Z,92.14
2019-01-28T05:02:48.719Z,92.61
2019-01-28T05:03:48.714Z,92.14
2019-01-28T05:04:49.211Z,91.19
2019-01-28T05:05:52.210Z,90.91
2019-01-28T05:06:49.211Z,90.81
2019-01-28T05:07:49.219Z,91.28
2019-01-28T05:08:51.146Z,91.19
2019-01-28T05:10:10.713Z,92.04
2019-01-28T05:15:29.241Z,92.61
2019-01-28T05:16:31.307Z,92.61
2019-01-28T05:17:27.806Z,92.80
2019-01-28T05:18:49.306Z,92.23
2019-01-28T05:21:20.658Z,92.52
2019-01-28T05:22:02.669Z,91.76
2019-01-28T05:24:52.266Z,91.47
2019-01-28T05:25:31.272Z,91.85
2019-01-28T05:26:31.279Z,91.76
2019-01-28T05:27:35.271Z,92.80
2019-01-28T05:28:31.772Z,91.28
2019-01-28T05:31:03.241Z,92.14
2019-01-28T05:32:03.251Z,91.38
2019-01-28T05:35:00.903Z,91.95
2019-01-28T05:35:59.449Z,92.52
2019-01-28T05:36:38.449Z,92.61
2019-01-28T05:39:16.167Z,92.99
2019-01-28T05:40:11.112Z,92.04
2019-01-28T05:42:41.775Z,91.66
2019-01-28T05:48:19.955Z,91.66
2019-01-28T05:49:19.963Z,91.76
2019-01-28T05:50:36.465Z,91.47
2019-01-28T05:51:41.460Z,91.76
2019-01-28T05:52:20.462Z,92.33
2019-01-28T05:53:20.462Z,91.47
2019-01-28T05:54:41.464Z,91.28
2019-01-28T05:55:45.460Z,91.57
2019-01-28T05:56:20.969Z,91.38
2019-01-28T05:59:13.934Z,92.42
2019-01-28T05:59:58.871Z,92.38
2019-01-28T06:01:10.935Z,92.90
2019-01-28T06:05:16.329Z,92.61
2019-01-28T06:06:20.081Z,92.80
2019-01-28T06:06:56.082Z,93.18
2019-01-28T06:08:17.578Z,93.18
2019-01-28T06:08:58.049Z,93.08
2019-01-28T06:09:56.579Z,93.46
2019-01-28T06:12:31.868Z,93.27
2019-01-28T06:13:31.875Z,93.56
2019-01-28T06:14:31.875Z,92.76
2019-01-28T06:18:38.932Z,93.99
2019-01-28T06:19:59.944Z,94.84
2019-01-28T06:20:38.938Z,95.07
2019-01-28T06:22:00.440Z,95.31
2019-01-28T06:22:42.947Z,94.32
2019-01-28T06:23:39.437Z,93.89
2019-01-28T06:24:39.437Z,93.65
2019-01-28T06:26:00.937Z,93.65
2019-01-28T06:27:00.937Z,93.65
2019-01-28T06:27:43.436Z,94.04
2019-01-28T06:28:39.937Z,94.04
2019-01-28T06:31:34.596Z,92.85
2019-01-28T06:32:33.195Z,93.56
2019-01-28T06:33:17.618Z,94.32
2019-01-28T06:35:44.348Z,94.04
2019-01-28T06:36:44.348Z,93.08
2019-01-28T06:37:44.345Z,93.42
2019-01-28T06:39:09.345Z,93.51
2019-01-28T06:41:36.451Z,94.98
2019-01-28T06:42:16.204Z,95.31
2019-01-28T06:43:16.203Z,94.98
2019-01-28T06:44:22.202Z,94.60
2019-01-28T06:45:16.702Z,93.84
2019-01-28T06:48:09.183Z,94.23
2019-01-28T06:51:54.520Z,94.32
2019-01-28T06:52:53.858Z,93.99
2019-01-28T06:53:54.526Z,93.80
2019-01-28T06:54:54.526Z,94.08
2019-01-28T06:56:19.527Z,94.08
2019-01-28T06:56:55.027Z,94.65
2019-01-28T06:57:55.042Z,94.65
2019-01-28T06:58:55.027Z,94.65
2019-01-28T07:00:01.533Z,95.12
2019-01-28T07:01:21.506Z,95.79
2019-01-28T07:01:54.851Z,95.50
2019-01-28T07:02:58.498Z,96.07
2019-01-28T07:04:16.061Z,96.07
2019-01-28T07:05:18.459Z,96.36
2019-01-28T07:07:52.378Z,95.03
2019-01-28T07:08:27.389Z,95.22
2019-01-28T07:09:27.391Z,95.22
2019-01-28T07:12:00.073Z,95.88
2019-01-28T07:14:37.301Z,95.60
2019-01-28T07:15:35.314Z,95.88
2019-01-28T07:16:35.319Z,95.31
2019-01-28T07:17:35.307Z,95.22
2019-01-28T07:18:59.795Z,95.41
2019-01-28T07:19:35.806Z,95.79
2019-01-28T07:22:42.275Z,95.69
2019-01-28T07:23:07.284Z,95.98
2019-01-28T07:27:35.019Z,95.41
2019-01-28T07:28:14.029Z,96.07
2019-01-28T07:31:09.808Z,96.17
2019-01-28T07:33:40.532Z,97.49
2019-01-28T07:35:54.346Z,96.73
2019-01-28T07:37:01.050Z,96.55
2019-01-28T07:37:55.050Z,96.45
2019-01-28T07:39:16.554Z,96.26
2019-01-28T07:39:58.558Z,96.83
2019-01-28T07:41:16.550Z,96.55
2019-01-28T07:41:55.548Z,96.26
2019-01-28T07:46:02.206Z,96.45
2019-01-28T07:47:00.195Z,97.30
2019-01-28T07:49:51.414Z,97.78
2019-01-28T07:50:32.419Z,97.49
2019-01-28T07:53:26.300Z,96.64
2019-01-28T07:54:05.303Z,96.92
2019-01-28T07:55:05.306Z,96.92
2019-01-28T07:58:16.019Z,97.30
2019-01-28T08:00:35.501Z,97.68
2019-01-28T08:03:03.978Z,97.49
2019-01-28T08:03:39.984Z,97.49
2019-01-28T08:06:32.603Z,97.49
2019-01-28T08:07:11.586Z,97.30
2019-01-28T08:08:15.588Z,97.30
2019-01-28T08:11:03.664Z,97.21
2019-01-28T08:11:43.318Z,97.87
2019-01-28T08:12:43.318Z,97.87
2019-01-28T08:15:18.676Z,97.59
2019-01-28T08:16:20.668Z,98.16
2019-01-28T08:18:52.415Z,98.35
2019-01-28T08:19:49.404Z,97.87
2019-01-28T08:21:10.404Z,97.82
2019-01-28T08:22:09.976Z,98.06
2019-01-28T08:22:55.908Z,98.30
2019-01-28T08:23:59.908Z,98.44
2019-01-28T08:24:49.242Z,98.06
2019-01-28T08:25:49.903Z,97.87
2019-01-28T08:28:21.497Z,97.68
2019-01-28T08:32:28.124Z,97.59
2019-01-28T08:33:27.456Z,97.49
2019-01-28T08:34:31.627Z,97.59
2019-01-28T08:35:35.602Z,97.21
2019-01-28T08:37:03.627Z,97.68
2019-01-28T08:37:27.724Z,97.68
2019-01-28T08:38:49.633Z,97.87
2019-01-28T08:39:28.633Z,98.35
2019-01-28T08:40:32.629Z,97.78
2019-01-28T08:41:28.626Z,97.87
2019-01-28T08:42:29.129Z,97.68
2019-01-28T08:43:50.124Z,98.54
2019-01-28T08:44:29.136Z,97.68
2019-01-28T08:45:29.127Z,97.59
2019-01-28T08:46:31.827Z,97.68
2019-01-28T08:47:31.066Z,97.78
2019-01-28T08:52:36.540Z,98.35
2019-01-28T08:53:32.548Z,97.78
2019-01-28T08:54:32.548Z,97.68
2019-01-28T08:55:33.048Z,98.06
2019-01-28T08:56:34.520Z,98.44
2019-01-28T08:57:33.047Z,98.25
2019-01-28T09:00:09.965Z,98.16
2019-01-28T09:01:07.974Z,98.44
2019-01-28T09:04:03.581Z,97.97
2019-01-28T09:04:39.581Z,97.87
2019-01-28T09:07:31.685Z,97.49
2019-01-28T09:08:11.309Z,97.21
2019-01-28T09:09:36.309Z,97.40
2019-01-28T09:10:13.762Z,97.49
2019-01-28T09:11:11.815Z,97.40
2019-01-28T09:12:11.807Z,96.55
2019-01-28T09:13:11.808Z,96.17
2019-01-28T09:16:09.094Z,95.98
2019-01-28T09:18:38.401Z,97.30
2019-01-28T09:19:48.636Z,97.59
2019-01-28T09:20:40.585Z,97.59
2019-01-28T09:21:45.629Z,97.59
2019-01-28T09:22:41.085Z,97.49
2019-01-28T09:23:22.561Z,97.40
2019-01-28T09:24:54.060Z,97.40
2019-01-28T09:25:18.634Z,96.83
2019-01-28T09:26:39.634Z,96.36
2019-01-28T09:28:50.859Z,97.02
2019-01-28T09:29:56.329Z,96.17
2019-01-28T09:30:50.169Z,96.26
2019-01-28T09:31:50.886Z,95.79
2019-01-28T09:32:52.301Z,95.03
2019-01-28T09:33:57.366Z,95.41
2019-01-28T09:35:05.367Z,95.22
2019-01-28T09:35:54.866Z,95.41
2019-01-28T09:36:51.366Z,95.22
2019-01-28T09:39:22.917Z,96.22
2019-01-28T09:40:26.524Z,96.03
2019-01-28T09:41:27.599Z,96.03
2019-01-28T09:42:45.090Z,96.41
2019-01-28T09:43:24.090Z,96.31
2019-01-28T09:44:45.091Z,96.41
2019-01-28T09:45:23.560Z,95.98
2019-01-28T09:46:49.096Z,95.03
2019-01-28T09:49:23.322Z,95.98
2019-01-28T09:51:58.297Z,95.79
2019-01-28T09:52:48.807Z,96.17
2019-01-28T09:53:48.806Z,95.98
2019-01-28T09:55:58.832Z,95.79
2019-01-28T09:57:03.547Z,96.36
2019-01-28T09:57:59.568Z,96.36
2019-01-28T09:59:23.047Z,95.98
2019-01-28T10:00:23.048Z,95.65
2019-01-28T10:01:00.052Z,95.41
2019-01-28T10:01:59.515Z,95.31
2019-01-28T10:03:05.545Z,95.60
2019-01-28T10:04:00.546Z,95.60
2019-01-28T10:05:20.884Z,95.45
2019-01-28T10:06:00.546Z,95.12
2019-01-28T10:10:07.440Z,95.41
2019-01-28T10:11:28.452Z,95.22
2019-01-28T10:12:28.447Z,95.50
2019-01-28T10:14:49.171Z,95.88
2019-01-28T10:15:39.194Z,95.69
2019-01-28T10:16:39.180Z,96.83
2019-01-28T10:17:38.771Z,96.73
2019-01-28T10:19:00.679Z,97.30
2019-01-28T10:19:45.683Z,97.11
2019-01-28T10:22:16.493Z,95.60
2019-01-28T10:23:28.563Z,96.36
2019-01-28T10:24:14.499Z,96.17
2019-01-28T10:25:37.498Z,96.36
2019-01-28T10:27:50.237Z,96.17
2019-01-28T10:28:50.241Z,95.88
2019-01-28T10:30:04.744Z,96.41
2019-01-28T10:32:26.092Z,95.41
2019-01-28T10:33:22.098Z,96.07
2019-01-28T10:35:55.286Z,97.11
2019-01-28T10:36:56.814Z,96.55
2019-01-28T10:37:56.771Z,96.83
2019-01-28T10:38:53.359Z,96.55
2019-01-28T10:40:21.323Z,96.92
2019-01-28T10:42:46.672Z,96.97
2019-01-28T10:46:31.915Z,96.73
2019-01-28T10:47:52.922Z,96.73
2019-01-28T10:48:55.635Z,96.50
2019-01-28T10:49:59.420Z,96.78
2019-01-28T10:54:00.494Z,95.36
2019-01-28T10:54:35.506Z,94.13
2019-01-28T10:55:56.504Z,94.42
2019-01-28T10:58:29.680Z,94.13
2019-01-28T10:59:32.227Z,94.13
2019-01-28T11:00:11.480Z,93.94
2019-01-28T11:01:30.796Z,94.13
2019-01-28T11:02:07.726Z,95.17
2019-01-28T11:03:28.726Z,94.89
2019-01-28T11:05:45.002Z,95.07
2019-01-28T11:06:42.957Z,95.26
2019-01-28T11:07:42.416Z,96.12
2019-01-28T11:08:46.392Z,96.12
2019-01-28T11:09:49.027Z,95.26
2019-01-28T11:11:04.458Z,95.55
2019-01-28T11:11:43.562Z,95.36
2019-01-28T11:15:50.171Z,95.26
2019-01-28T11:16:48.101Z,93.94
2019-01-28T11:17:46.616Z,93.65
2019-01-28T11:18:46.740Z,93.56
2019-01-28T11:19:47.198Z,94.13
2019-01-28T11:22:22.982Z,94.04
2019-01-28T11:23:23.011Z,93.94
2019-01-28T11:24:22.533Z,94.23
2019-01-28T11:25:23.450Z,94.13
2019-01-28T11:26:47.593Z,94.04
2019-01-28T11:27:44.457Z,94.23
2019-01-28T11:28:44.866Z,94.98
2019-01-28T11:29:44.977Z,95.07
2019-01-28T11:30:23.950Z,94.98
2019-01-28T11:33:05.250Z,95.26
2019-01-28T11:33:58.660Z,95.45
2019-01-28T11:34:58.788Z,95.26
2019-01-28T11:36:05.068Z,95.36
2019-01-28T11:38:36.385Z,96.22
2019-01-28T11:39:49.506Z,96.31
2019-01-28T11:40:55.886Z,96.50
2019-01-28T11:43:10.697Z,96.78
2019-01-28T11:44:06.584Z,96.03
2019-01-28T11:45:07.095Z,95.74
2019-01-28T11:47:59.843Z,96.22
2019-01-28T11:48:42.314Z,95.84
2019-01-28T11:49:40.394Z,96.17
2019-01-28T11:51:02.312Z,96.50
2019-01-28T11:51:39.303Z,96.73
2019-01-28T11:54:16.783Z,95.50
2019-01-28T11:55:10.810Z,96.26
2019-01-28T11:56:10.777Z,96.36
2019-01-28T11:57:10.779Z,96.26
2019-01-28T11:58:37.213Z,96.45
2019-01-28T11:59:11.277Z,97.02
2019-01-28T12:00:13.997Z,97.30
2019-01-28T12:01:25.280Z,97.59
2019-01-28T12:02:12.217Z,97.68
2019-01-28T12:05:38.038Z,97.30
2019-01-28T12:06:34.535Z,97.49
2019-01-28T12:07:59.470Z,97.68
2019-01-28T12:08:34.545Z,96.73
2019-01-28T12:09:49.045Z,96.64
2019-01-28T12:10:44.970Z,96.92
2019-01-28T12:11:39.970Z,96.83
2019-01-28T12:14:06.630Z,96.17
2019-01-28T12:15:05.969Z,96.26
2019-01-28T12:16:06.634Z,96.55
2019-01-28T12:17:10.634Z,97.40
2019-01-28T12:18:06.231Z,96.45
2019-01-28T12:20:38.459Z,96.64
2019-01-28T12:21:39.916Z,96.26
2019-01-28T12:23:03.891Z,96.45
2019-01-28T12:23:38.455Z,96.64
2019-01-28T12:25:05.956Z,96.78
2019-01-28T12:25:59.963Z,97.49
2019-01-28T12:26:38.955Z,97.02
2019-01-28T12:28:03.462Z,96.73
2019-01-28T12:29:02.456Z,96.83
2019-01-28T12:29:39.457Z,97.35
2019-01-28T12:31:01.889Z,97.45
2019-01-28T12:31:39.459Z,97.64
2019-01-28T12:34:15.545Z,97.11
2019-01-28T12:35:38.126Z,97.59
2019-01-28T12:36:15.216Z,97.83
2019-01-28T12:38:52.251Z,97.97
2019-01-28T12:39:49.320Z,97.83
2019-01-28T12:42:20.796Z,97.16
2019-01-28T12:45:14.760Z,97.92
2019-01-28T12:45:50.272Z,97.83
2019-01-28T12:46:50.282Z,97.26
2019-01-28T12:47:52.765Z,97.73
2019-01-28T12:49:11.765Z,97.92
2019-01-28T12:50:21.278Z,97.45
2019-01-28T12:50:50.766Z,97.83
2019-01-28T12:54:53.927Z,97.83
2019-01-28T12:55:59.927Z,97.54
2019-01-28T12:57:16.373Z,97.64
2019-01-28T12:58:15.416Z,97.45
2019-01-28T12:58:53.512Z,97.73
2019-01-28T13:00:15.426Z,97.26
2019-01-28T13:00:55.538Z,97.92
2019-01-28T13:02:24.916Z,97.54
2019-01-28T13:02:55.887Z,96.50
2019-01-28T13:04:15.916Z,97.64
2019-01-28T13:05:15.967Z,98.54
2019-01-28T13:06:15.915Z,98.25
2019-01-28T13:07:02.354Z,98.39
2019-01-28T13:09:26.651Z,98.82
2019-01-28T13:10:26.649Z,98.16
2019-01-28T13:11:26.797Z,98.49
2019-01-28T13:14:16.168Z,98.68
2019-01-28T13:15:02.168Z,98.68
2019-01-28T13:16:02.168Z,98.54
2019-01-28T13:19:04.890Z,98.91
2019-01-28T13:19:33.894Z,98.68
2019-01-28T13:20:38.332Z,98.35
2019-01-28T13:23:05.607Z,98.91
2019-01-28T13:24:23.624Z,99.77
2019-01-28T13:25:05.613Z,99.39
2019-01-28T13:27:37.334Z,99.29
2019-01-28T13:28:39.807Z,99.39
2019-01-28T13:29:40.856Z,99.99
2019-01-28T13:30:37.861Z,99.99
2019-01-28T13:33:10.276Z,99.72
2019-01-28T13:34:10.773Z,99.44
2019-01-28T13:35:34.348Z,99.44
2019-01-28T13:41:40.577Z,99.25
2019-01-28T13:45:18.714Z,99.99
2019-01-28T13:46:21.719Z,99.44
2019-01-28T13:47:18.719Z,98.96
2019-01-28T13:49:52.392Z,99.06
2019-01-28T13:50:50.900Z,99.06
2019-01-28T13:53:46.871Z,99.63
2019-01-28T13:55:00.878Z,99.44
2019-01-28T13:55:25.890Z,99.34
2019-01-28T13:56:31.312Z,99.63
2019-01-28T13:57:29.881Z,99.34
2019-01-28T13:58:29.813Z,98.77
2019-01-28T13:59:48.813Z,98.96
2019-01-28T14:01:57.400Z,98.96
2019-01-28T14:04:47.113Z,98.77
2019-01-28T14:05:33.094Z,99.06
2019-01-28T14:06:54.093Z,98.87
2019-01-28T14:07:34.550Z,99.15
2019-01-28T14:08:37.093Z,98.68
2019-01-28T14:09:56.551Z,99.15
2019-01-28T14:10:32.903Z,98.68
2019-01-28T14:13:07.109Z,98.11
2019-01-28T14:14:23.126Z,98.39
2019-01-28T14:19:50.695Z,98.39
2019-01-28T14:21:00.761Z,97.78
2019-01-28T14:21:39.762Z,98.21
2019-01-28T14:24:32.490Z,98.68
2019-01-28T14:25:14.998Z,99.30
2019-01-28T14:26:12.497Z,98.35
2019-01-28T14:27:11.998Z,99.15
2019-01-28T14:28:33.000Z,98.77
2019-01-28T14:29:32.999Z,98.96
2019-01-28T14:30:11.998Z,98.58
2019-01-28T14:31:15.998Z,98.58
2019-01-28T14:35:15.566Z,99.25
2019-01-28T14:36:41.072Z,98.87
2019-01-28T14:37:39.072Z,99.63
2019-01-28T14:39:47.425Z,98.77
2019-01-28T14:40:47.430Z,99.25
2019-01-28T14:41:50.936Z,98.68
2019-01-28T14:44:19.274Z,99.72
2019-01-28T14:45:54.281Z,99.44
2019-01-28T14:46:19.281Z,99.91
2019-01-28T14:47:24.745Z,99.99
2019-01-28T14:49:54.638Z,99.99
2019-01-28T14:50:57.105Z,99.99
2019-01-28T14:51:51.100Z,99.99
2019-01-28T14:53:16.104Z,99.63
2019-01-28T14:54:12.600Z,99.44
2019-01-28T14:55:05.599Z,99.99
2019-01-28T14:55:51.615Z,99.99
2019-01-28T14:58:26.819Z,99.99
2019-01-28T14:59:22.664Z,99.99
2019-01-28T15:00:23.325Z,99.25
2019-01-28T15:01:23.827Z,99.99
2019-01-28T15:02:25.825Z,99.82
2019-01-28T15:03:27.827Z,99.99
2019-01-28T15:04:23.288Z,99.82
2019-01-28T15:05:24.325Z,99.99
2019-01-28T15:09:30.987Z,99.99
2019-01-28T15:10:47.984Z,99.99
2019-01-28T15:11:26.986Z,99.99
2019-01-28T15:12:27.479Z,99.99
2019-01-28T15:13:27.476Z,99.99
2019-01-28T15:14:27.487Z,99.99
2019-01-28T15:15:30.978Z,99.99
2019-01-28T15:16:27.069Z,99.72
2019-01-28T15:17:27.976Z,99.82
2019-01-28T15:20:02.468Z,99.34
2019-01-28T15:21:38.453Z,98.96
2019-01-28T15:21:59.451Z,98.87
2019-01-28T15:26:06.613Z,98.11
2019-01-28T15:28:34.059Z,97.92
2019-01-28T15:31:31.025Z,98.21
2019-01-28T15:32:05.748Z,98.11
2019-01-28T15:33:06.558Z,97.92
2019-01-28T15:34:05.998Z,98.30
2019-01-28T15:35:07.057Z,98.11
2019-01-28T15:36:31.534Z,97.92
2019-01-28T15:37:06.254Z,97.64
2019-01-28T15:38:34.047Z,98.68
2019-01-28T15:39:07.033Z,98.96
2019-01-28T15:40:29.472Z,98.30
2019-01-28T15:41:07.543Z,97.92
2019-01-28T15:42:11.030Z,98.49
2019-01-28T15:43:07.533Z,97.54
2019-01-28T15:44:07.535Z,97.21
2019-01-28T15:45:29.033Z,97.73
2019-01-28T15:46:43.052Z,97.64
2019-01-28T15:47:11.465Z,97.45
2019-01-28T15:48:08.033Z,97.35
2019-01-28T15:49:22.533Z,97.54
2019-01-28T15:50:10.965Z,97.35
2019-01-28T15:51:09.505Z,97.64
2019-01-28T15:52:08.537Z,97.64
2019-01-28T15:54:43.569Z,98.58
2019-01-28T15:55:43.560Z,98.30
2019-01-28T15:56:43.559Z,98.39
2019-01-28T15:59:40.353Z,98.02
2019-01-28T16:00:14.668Z,98.11
2019-01-28T16:01:21.311Z,98.11
2019-01-28T16:07:07.665Z,98.96
2019-01-28T16:07:53.690Z,98.58
2019-01-28T16:08:53.672Z,98.96
2019-01-28T16:10:29.174Z,99.25
2019-01-28T16:11:18.672Z,99.25
2019-01-28T16:14:56.708Z,99.06
2019-01-28T16:16:00.907Z,99.34
2019-01-28T16:16:58.842Z,98.96
2019-01-28T16:22:35.716Z,98.11
2019-01-28T16:23:38.130Z,98.58
2019-01-28T16:24:59.196Z,98.02
2019-01-28T16:29:03.770Z,97.83
2019-01-28T16:29:48.766Z,97.64
2019-01-28T16:32:17.490Z,97.73
2019-01-28T16:33:14.499Z,98.58
2019-01-28T16:34:14.500Z,98.58
2019-01-28T16:35:15.016Z,98.49
2019-01-28T16:36:16.439Z,98.49
2019-01-28T16:38:50.164Z,98.11
2019-01-28T16:39:49.502Z,97.73
2019-01-28T16:40:50.172Z,97.50
2019-01-28T16:41:50.191Z,97.40
2019-01-28T16:43:17.170Z,97.12
2019-01-28T16:43:50.668Z,96.59
2019-01-28T16:46:23.081Z,97.35
2019-01-28T16:47:43.144Z,97.26
2019-01-28T16:51:49.838Z,97.54
2019-01-28T16:52:28.833Z,97.35
2019-01-28T16:56:39.526Z,96.78
2019-01-28T16:59:31.077Z,96.78
2019-01-28T17:00:06.570Z,97.07
2019-01-28T17:01:07.510Z,97.45
2019-01-28T17:03:38.233Z,97.54
2019-01-28T17:05:03.240Z,97.35
2019-01-28T17:07:30.987Z,97.35
2019-01-28T17:08:09.975Z,97.35
2019-01-28T17:09:10.482Z,97.45
2019-01-28T17:13:37.954Z,96.69
2019-01-28T17:16:13.853Z,97.16
2019-01-28T17:16:48.422Z,96.78
2019-01-28T17:17:48.419Z,96.97
2019-01-28T17:19:23.919Z,97.64
2019-01-28T17:21:23.307Z,96.69
2019-01-28T17:22:41.280Z,96.22
2019-01-28T17:23:41.779Z,95.45
2019-01-28T17:24:20.777Z,95.93
2019-01-28T17:25:20.778Z,95.84
2019-01-28T17:29:48.680Z,96.97
2019-01-28T17:30:54.674Z,97.54
2019-01-28T17:31:33.136Z,97.54
2019-01-28T17:32:28.168Z,97.07
2019-01-28T17:34:58.806Z,98.39
2019-01-28T17:36:20.544Z,97.64
2019-01-28T17:38:54.775Z,97.92
2019-01-28T17:39:33.806Z,97.64
2019-01-28T17:42:08.505Z,98.39
2019-01-28T17:43:26.521Z,97.35
2019-01-28T17:44:05.515Z,98.49
2019-01-28T17:45:06.006Z,98.30
2019-01-28T17:46:06.012Z,98.11
2019-01-28T17:47:30.508Z,97.83
2019-01-28T17:48:06.007Z,97.64
2019-01-28T17:49:06.510Z,98.39
2019-01-28T17:50:08.452Z,98.30
2019-01-28T17:51:06.510Z,97.35
2019-01-28T17:52:06.506Z,98.44
2019-01-28T17:53:31.019Z,98.21
2019-01-28T17:54:13.006Z,98.06
2019-01-28T17:55:06.220Z,98.25
2019-01-28T17:56:07.007Z,98.35
2019-01-28T18:00:13.804Z,98.06
2019-01-28T18:01:34.764Z,98.16
2019-01-28T18:02:34.761Z,97.68
2019-01-28T18:03:14.257Z,98.06
2019-01-28T18:04:17.758Z,98.06
2019-01-28T18:05:14.266Z,98.06
2019-01-28T18:06:14.260Z,98.44
2019-01-28T18:08:46.004Z,98.72
2019-01-28T18:11:20.959Z,97.92
2019-01-28T18:13:52.448Z,98.06
2019-01-28T18:14:55.962Z,98.16
2019-01-28T18:15:52.435Z,97.35
2019-01-28T18:16:52.935Z,97.45
2019-01-28T18:18:13.935Z,96.78
2019-01-28T18:18:52.939Z,96.78
2019-01-28T18:21:53.300Z,96.78
2019-01-28T18:22:49.865Z,95.55
2019-01-28T18:23:28.869Z,95.55
2019-01-28T18:26:25.084Z,96.41
2019-01-28T18:30:24.911Z,95.07
2019-01-28T18:31:27.457Z,95.88
2019-01-28T18:35:06.983Z,97.11
2019-01-28T18:36:30.538Z,97.30
2019-01-28T18:37:06.994Z,97.30
2019-01-28T18:44:40.349Z,96.64
2019-01-28T18:45:40.848Z,95.84
2019-01-28T18:48:14.235Z,95.07
2019-01-28T18:49:14.246Z,95.60
2019-01-28T18:50:14.242Z,96.17
2019-01-28T18:51:14.814Z,95.88
2019-01-28T18:52:18.260Z,96.36
2019-01-28T18:52:55.741Z,96.69
2019-01-28T18:53:53.741Z,96.64
2019-01-28T18:56:25.460Z,95.22
2019-01-28T18:57:29.027Z,95.65